createdAt,value
2017-12-10T00:00:57.047Z,60.56
2017-12-10T00:03:24.836Z,60.52
2017-12-10T00:06:04.962Z,60.32
2017-12-10T00:13:58.859Z,59.10
2017-12-10T00:19:32.443Z,60.11
2017-12-10T00:22:10.008Z,59.73
2017-12-10T00:24:48.505Z,59.96
2017-12-10T00:27:16.594Z,59.54
2017-12-10T00:29:44.529Z,59.53
2017-12-10T00:32:14.297Z,59.64
2017-12-10T00:34:44.675Z,59.52
2017-12-10T00:43:26.828Z,60.08
2017-12-10T00:46:10.675Z,60.53
2017-12-10T00:48:39.309Z,61.20
2017-12-10T00:54:19.174Z,60.34
2017-12-10T00:56:49.597Z,60.42
2017-12-10T00:59:18.253Z,60.54
2017-12-10T01:01:46.604Z,60.49
2017-12-10T01:04:18.157Z,60.44
2017-12-10T01:06:50.213Z,60.19
2017-12-10T01:11:56.608Z,60.49
2017-12-10T01:17:48.076Z,60.85
2017-12-10T02:28:02.413Z,63.10
2017-12-10T02:30:33.477Z,62.82
2017-12-10T02:33:03.486Z,62.73
2017-12-10T02:35:33.820Z,62.63
2017-12-10T02:38:03.093Z,62.63
2017-12-10T02:40:39.525Z,62.29
2017-12-10T02:46:29.015Z,62.13
2017-12-10T02:49:05.610Z,62.10
2017-12-10T02:51:34.992Z,62.14
2017-12-10T02:54:05.125Z,62.56
2017-12-10T02:56:35.220Z,62.70
2017-12-10T02:59:05.432Z,62.29
2017-12-10T03:01:34.976Z,62.07
2017-12-10T03:04:03.339Z,61.84
2017-12-10T03:06:31.129Z,62.65
2017-12-10T03:08:59.585Z,62.33
2017-12-10T03:11:28.159Z,62.81
2017-12-10T03:13:58.109Z,62.70
2017-12-10T03:16:25.826Z,62.70
2017-12-10T03:18:54.804Z,62.80
2017-12-10T03:21:28.639Z,63.36
2017-12-10T03:24:00.391Z,63.04
2017-12-10T03:26:32.249Z,62.81
2017-12-10T03:32:01.124Z,63.00
2017-12-10T03:34:31.579Z,62.90
2017-12-10T03:36:59.582Z,63.07
2017-12-10T03:39:28.638Z,63.55
2017-12-10T03:42:03.477Z,63.24
2017-12-10T03:44:32.574Z,63.17
2017-12-10T03:47:02.312Z,63.18
2017-12-10T03:49:30.452Z,62.94
2017-12-10T03:51:59.848Z,62.33
2017-12-10T03:54:38.603Z,61.98
2017-12-10T03:57:10.260Z,61.45
2017-12-10T03:59:42.639Z,61.80
2017-12-10T04:02:12.144Z,61.33
2017-12-10T04:04:40.114Z,61.22
2017-12-10T04:07:15.098Z,60.26
2017-12-10T04:09:43.687Z,60.17
2017-12-10T04:12:12.807Z,59.89
2017-12-10T04:14:40.633Z,59.78
2017-12-10T04:17:09.145Z,59.52
2017-12-10T04:19:49.510Z,59.64
2017-12-10T04:22:20.066Z,59.39
2017-12-10T04:24:50.854Z,59.74
2017-12-10T04:27:19.452Z,59.45
2017-12-10T04:29:48.828Z,59.34
2017-12-10T04:32:21.438Z,58.76
2017-12-10T04:34:49.208Z,58.77
2017-12-10T04:37:18.502Z,58.63
2017-12-10T04:39:49.246Z,58.41
2017-12-10T04:42:18.677Z,58.41
2017-12-10T04:44:47.690Z,58.95
2017-12-10T04:47:16.916Z,58.93
2017-12-10T04:49:44.688Z,58.98
2017-12-10T04:52:12.702Z,59.83
2017-12-10T04:54:41.750Z,59.96
2017-12-10T04:57:09.355Z,59.92
2017-12-10T04:59:38.118Z,60.10
2017-12-10T05:02:05.965Z,60.22
2017-12-10T05:04:34.128Z,60.39
2017-12-10T05:07:03.050Z,59.95
2017-12-10T05:09:33.344Z,59.29
2017-12-10T05:12:01.334Z,59.52
2017-12-10T05:14:30.230Z,59.96
2017-12-10T05:16:59.276Z,59.46
2017-12-10T05:19:30.984Z,58.99
2017-12-10T05:21:58.957Z,58.91
2017-12-10T05:24:27.894Z,58.64
2017-12-10T05:26:56.855Z,58.85
2017-12-10T05:29:25.673Z,59.25
2017-12-10T05:31:54.138Z,59.58
2017-12-10T05:34:22.123Z,58.93
2017-12-10T05:36:50.341Z,59.14
2017-12-10T05:39:22.351Z,58.95
2017-12-10T05:41:51.056Z,59.21
2017-12-10T05:44:19.337Z,59.17
2017-12-10T05:46:47.949Z,59.36
2017-12-10T05:49:16.127Z,59.17
2017-12-10T05:51:45.268Z,58.90
2017-12-10T05:54:14.609Z,58.81
2017-12-10T05:56:43.048Z,58.96
2017-12-10T05:59:12.617Z,59.15
2017-12-10T06:01:41.463Z,58.79
2017-12-10T06:04:14.701Z,59.26
2017-12-10T06:06:44.131Z,59.36
2017-12-10T06:09:15.172Z,58.82
2017-12-10T06:11:46.185Z,58.20
2017-12-10T06:14:14.144Z,58.11
2017-12-10T06:16:48.040Z,58.23
2017-12-10T06:19:19.924Z,58.35
2017-12-10T06:21:49.177Z,58.44
2017-12-10T06:24:17.573Z,58.42
2017-12-10T06:29:29.277Z,58.07
2017-12-10T06:34:39.702Z,58.04
2017-12-10T06:40:26.118Z,58.19
2017-12-10T06:42:56.156Z,58.54
2017-12-10T06:45:25.972Z,58.27
2017-12-10T06:47:54.650Z,58.40
2017-12-10T06:50:34.513Z,58.41
2017-12-10T06:55:50.943Z,58.99
2017-12-10T06:58:25.104Z,58.67
2017-12-10T07:04:09.519Z,59.21
2017-12-10T07:06:38.152Z,60.03
2017-12-10T07:09:05.716Z,60.07
2017-12-10T07:11:33.320Z,61.00
2017-12-10T07:14:00.868Z,61.69
2017-12-10T07:16:28.592Z,62.93
2017-12-10T07:18:56.372Z,62.70
2017-12-10T07:21:24.043Z,62.21
2017-12-10T07:23:58.957Z,61.83
2017-12-10T07:26:33.517Z,61.79
2017-12-10T07:29:02.392Z,61.07
2017-12-10T07:31:30.070Z,60.11
2017-12-10T07:33:58.365Z,59.66
2017-12-10T07:36:28.722Z,59.75
2017-12-10T07:39:00.168Z,59.18
2017-12-10T07:41:39.030Z,59.04
2017-12-10T07:44:06.942Z,58.50
2017-12-10T07:46:34.505Z,58.07
2017-12-10T07:49:02.184Z,56.50
2017-12-10T07:51:29.709Z,56.81
2017-12-10T07:53:57.336Z,57.36
2017-12-10T07:56:25.785Z,56.90
2017-12-10T07:58:53.412Z,57.76
2017-12-10T08:01:21.000Z,57.77
2017-12-10T08:03:48.529Z,58.33
2017-12-10T08:06:17.128Z,58.74
2017-12-10T08:08:57.596Z,59.03
2017-12-10T08:11:27.558Z,60.10
2017-12-10T08:13:55.356Z,60.23
2017-12-10T08:16:27.315Z,59.85
2017-12-10T08:18:56.012Z,59.54
2017-12-10T08:21:24.807Z,59.54
2017-12-10T08:23:52.467Z,59.48
2017-12-10T08:26:20.045Z,59.75
2017-12-10T08:28:47.881Z,59.71
2017-12-10T08:31:15.579Z,59.67
2017-12-10T08:33:50.423Z,59.93
2017-12-10T08:36:18.035Z,58.91
2017-12-10T08:38:49.073Z,58.39
2017-12-10T08:41:42.951Z,57.71
2017-12-10T08:44:10.566Z,56.15
2017-12-10T08:46:41.388Z,53.40
2017-12-10T08:49:09.094Z,51.87
2017-12-10T08:51:36.619Z,51.78
2017-12-10T08:54:04.220Z,51.46
2017-12-10T08:56:31.875Z,50.62
2017-12-10T08:59:07.293Z,50.95
2017-12-10T09:01:39.308Z,50.87
2017-12-10T09:04:12.131Z,50.63
2017-12-10T09:06:39.818Z,50.87
2017-12-10T09:09:07.864Z,51.20
2017-12-10T09:11:35.604Z,51.05
2017-12-10T09:14:03.558Z,51.08
2017-12-10T09:16:31.124Z,51.95
2017-12-10T09:18:59.284Z,52.74
2017-12-10T09:21:27.072Z,53.06
2017-12-10T09:23:54.694Z,54.16
2017-12-10T09:26:41.215Z,54.24
2017-12-10T09:32:05.071Z,53.96
2017-12-10T09:40:36.005Z,52.36
2017-12-10T09:43:04.078Z,52.36
2017-12-10T09:45:31.694Z,55.24
2017-12-10T09:48:01.772Z,57.08
2017-12-10T09:50:36.668Z,58.08
2017-12-10T09:53:21.671Z,60.28
2017-12-10T09:55:49.310Z,62.86
2017-12-10T09:58:18.561Z,65.04
2017-12-10T10:03:52.105Z,67.39
2017-12-10T10:06:27.072Z,68.94
2017-12-10T10:08:57.497Z,70.24
2017-12-10T10:17:29.390Z,72.16
2017-12-10T10:31:50.865Z,78.09
2017-12-10T10:34:21.945Z,77.89
2017-12-10T10:36:55.254Z,78.08
2017-12-10T10:39:25.121Z,77.83
2017-12-10T10:46:24.466Z,78.92
2017-12-10T10:48:52.154Z,80.30
2017-12-10T10:51:22.993Z,80.12
2017-12-10T10:53:51.268Z,80.32
2017-12-10T11:13:18.872Z,81.22
2017-12-10T11:18:44.567Z,81.52
2017-12-10T12:54:42.836Z,85.00
2017-12-10T12:57:31.538Z,84.49
2017-12-10T12:59:59.410Z,84.22
2017-12-10T13:05:05.436Z,83.16
2017-12-10T13:07:37.201Z,82.30
2017-12-10T13:10:24.945Z,82.18
2017-12-10T13:12:52.446Z,82.29
2017-12-10T13:15:37.046Z,81.61
2017-12-10T13:18:14.541Z,81.92
2017-12-10T13:26:21.352Z,82.45
2017-12-10T13:28:50.747Z,82.39
2017-12-10T13:37:35.506Z,84.14
2017-12-10T13:40:03.064Z,84.38
2017-12-10T13:42:31.179Z,84.23
2017-12-10T13:48:05.009Z,84.48
2017-12-10T13:50:32.704Z,84.35
2017-12-10T13:53:00.151Z,84.33
2017-12-10T13:55:28.992Z,84.32
2017-12-10T13:57:56.863Z,84.01
2017-12-10T14:00:25.926Z,83.93
2017-12-10T14:02:53.876Z,83.97
2017-12-10T14:05:22.365Z,83.92
2017-12-10T14:07:49.983Z,83.57
2017-12-10T14:10:18.476Z,83.43
2017-12-10T14:12:46.755Z,83.39
2017-12-10T14:15:15.000Z,83.47
2017-12-10T14:17:42.694Z,83.88
2017-12-10T14:20:10.148Z,83.84
2017-12-10T14:22:37.768Z,83.88
2017-12-10T14:25:05.600Z,83.93
2017-12-10T14:27:33.153Z,83.93
2017-12-10T14:30:00.707Z,83.92
2017-12-10T14:32:28.216Z,83.97
2017-12-10T14:34:55.698Z,84.23
2017-12-10T14:37:23.216Z,84.20
2017-12-10T14:39:50.799Z,83.90
2017-12-10T14:42:18.280Z,83.86
2017-12-10T14:44:45.865Z,83.84
2017-12-10T14:47:13.662Z,83.73
2017-12-10T14:49:41.323Z,84.02
2017-12-10T14:52:08.851Z,84.21
2017-12-10T14:54:36.416Z,83.91
2017-12-10T14:57:03.993Z,84.15
2017-12-10T14:59:31.669Z,84.23
2017-12-10T15:02:00.264Z,84.28
2017-12-10T15:04:27.830Z,84.23
2017-12-10T15:06:55.370Z,84.35
2017-12-10T15:09:23.187Z,84.05
2017-12-10T15:11:50.699Z,83.80
2017-12-10T15:14:18.206Z,83.64
2017-12-10T15:16:45.778Z,83.45
2017-12-10T15:19:14.459Z,83.24
2017-12-10T15:21:42.215Z,83.11
2017-12-10T15:24:09.727Z,83.24
2017-12-10T15:26:37.321Z,83.22
2017-12-10T15:29:04.802Z,83.14
2017-12-10T15:31:32.409Z,83.25
2017-12-10T15:33:59.921Z,83.06
2017-12-10T15:36:27.428Z,83.03
2017-12-10T15:38:55.241Z,83.11
2017-12-10T15:41:27.812Z,83.08
2017-12-10T15:44:06.674Z,82.99
2017-12-10T15:46:34.225Z,82.97
2017-12-10T15:49:01.917Z,83.33
2017-12-10T15:51:29.601Z,83.31
2017-12-10T15:53:58.607Z,83.11
2017-12-10T15:56:26.350Z,83.08
2017-12-10T15:58:53.857Z,82.75
2017-12-10T16:01:21.414Z,82.10
2017-12-10T16:03:48.901Z,82.07
2017-12-10T16:06:17.582Z,81.96
2017-12-10T16:08:45.129Z,82.14
2017-12-10T16:11:13.360Z,82.26
2017-12-10T16:13:41.036Z,82.40
2017-12-10T16:16:08.583Z,82.24
2017-12-10T16:18:36.726Z,82.21
2017-12-10T16:21:04.251Z,81.54
2017-12-10T16:23:31.769Z,81.57
2017-12-10T16:26:00.346Z,81.77
2017-12-10T16:28:28.152Z,81.78
2017-12-10T16:30:56.908Z,81.85
2017-12-10T16:33:24.395Z,81.57
2017-12-10T16:35:52.549Z,81.46
2017-12-10T16:38:20.314Z,81.58
2017-12-10T16:40:47.814Z,81.48
2017-12-10T16:43:15.412Z,81.43
2017-12-10T16:45:42.981Z,81.09
2017-12-10T16:48:10.511Z,81.20
2017-12-10T16:50:38.772Z,81.13
2017-12-10T16:53:07.538Z,80.99
2017-12-10T16:55:35.913Z,80.78
2017-12-10T16:58:03.714Z,80.93
2017-12-10T17:00:31.623Z,80.67
2017-12-10T17:02:59.156Z,80.68
2017-12-10T17:05:26.670Z,80.69
2017-12-10T17:07:55.453Z,80.59
2017-12-10T17:10:22.990Z,80.12
2017-12-10T17:12:50.652Z,79.85
2017-12-10T17:15:18.281Z,80.48
2017-12-10T17:17:48.274Z,80.23
2017-12-10T17:20:15.818Z,80.21
2017-12-10T17:22:44.356Z,80.13
2017-12-10T17:25:11.938Z,79.61
2017-12-10T17:27:39.505Z,79.92
2017-12-10T17:30:07.118Z,79.79
2017-12-10T17:32:34.725Z,79.75
2017-12-10T17:35:02.251Z,79.37
2017-12-10T17:37:30.557Z,79.19
2017-12-10T17:39:59.668Z,78.74
2017-12-10T17:42:27.390Z,78.60
2017-12-10T17:44:54.929Z,78.12
2017-12-10T17:47:22.485Z,77.84
2017-12-10T17:49:50.045Z,77.58
2017-12-10T17:52:17.595Z,77.16
2017-12-10T17:54:45.192Z,77.11
2017-12-10T17:57:12.895Z,76.99
2017-12-10T17:59:40.538Z,76.64
2017-12-10T18:02:08.102Z,76.66
2017-12-10T18:04:35.670Z,75.92
2017-12-10T18:07:05.980Z,76.01
2017-12-10T18:09:33.676Z,75.82
2017-12-10T18:12:01.365Z,75.73
2017-12-10T18:14:28.944Z,75.58
2017-12-10T18:16:57.953Z,75.43
2017-12-10T18:19:26.430Z,75.38
2017-12-10T18:21:53.993Z,75.70
2017-12-10T18:24:21.500Z,75.62
2017-12-10T18:26:49.162Z,75.90
2017-12-10T18:29:16.721Z,74.80
2017-12-10T18:31:45.348Z,74.57
2017-12-10T18:34:13.126Z,74.26
2017-12-10T18:36:40.680Z,74.27
2017-12-10T18:39:14.944Z,74.06
2017-12-10T18:44:29.856Z,73.35
2017-12-10T18:59:11.775Z,71.36
2017-12-10T19:01:53.734Z,71.29
2017-12-10T19:04:22.527Z,70.82
2017-12-10T19:06:51.138Z,70.98
2017-12-10T19:09:18.698Z,71.34
2017-12-10T19:11:47.366Z,71.05
2017-12-10T19:14:15.344Z,71.22
2017-12-10T19:16:43.102Z,71.04
2017-12-10T19:19:10.657Z,70.29
2017-12-10T19:21:38.221Z,70.24
2017-12-10T19:24:05.847Z,70.20
2017-12-10T19:26:33.510Z,69.74
2017-12-10T19:29:01.118Z,69.28
2017-12-10T19:31:29.127Z,69.13
2017-12-10T19:33:56.742Z,68.53
2017-12-10T19:36:24.628Z,68.57
2017-12-10T19:38:53.283Z,67.97
2017-12-10T19:41:22.085Z,67.81
2017-12-10T19:43:49.806Z,67.52
2017-12-10T19:46:17.599Z,67.12
2017-12-10T19:48:45.368Z,67.09
2017-12-10T19:51:13.036Z,67.11
2017-12-10T19:53:40.737Z,67.44
2017-12-10T19:56:09.076Z,67.63
2017-12-10T19:58:37.072Z,67.69
2017-12-10T20:01:05.555Z,67.25
2017-12-10T20:03:34.204Z,66.52
2017-12-10T20:06:03.617Z,66.76
2017-12-10T20:08:32.258Z,66.75
2017-12-10T20:11:00.082Z,66.84
2017-12-10T20:13:27.866Z,66.58
2017-12-10T20:15:56.120Z,66.25
2017-12-10T20:18:24.457Z,66.25
2017-12-10T20:20:54.302Z,66.55
2017-12-10T20:23:24.655Z,65.85
2017-12-10T20:25:53.150Z,65.90
2017-12-10T20:28:21.467Z,65.30
2017-12-10T20:30:49.049Z,65.62
2017-12-10T20:33:16.626Z,64.66
2017-12-10T20:35:44.215Z,64.99
2017-12-10T20:38:12.619Z,64.86
2017-12-10T20:40:40.898Z,65.05
2017-12-10T20:43:08.601Z,65.12
2017-12-10T20:45:36.879Z,65.05
2017-12-10T20:48:04.416Z,64.67
2017-12-10T20:50:32.489Z,64.26
2017-12-10T20:53:00.431Z,64.16
2017-12-10T20:55:28.441Z,64.52
2017-12-10T20:57:56.119Z,64.04
2017-12-10T21:00:23.738Z,64.43
2017-12-10T21:02:51.350Z,64.91
2017-12-10T21:05:18.915Z,64.96
2017-12-10T21:07:46.414Z,65.00
2017-12-10T21:10:13.920Z,65.55
2017-12-10T21:12:42.122Z,65.51
2017-12-10T21:15:09.926Z,65.68
2017-12-10T21:17:39.490Z,65.65
2017-12-10T21:20:08.395Z,65.94
2017-12-10T21:22:38.065Z,66.03
2017-12-10T21:25:06.623Z,66.37
2017-12-10T21:27:38.376Z,66.26
2017-12-10T21:30:07.512Z,66.08
2017-12-10T21:32:36.515Z,66.04
2017-12-10T21:35:04.189Z,66.20
2017-12-10T21:37:31.849Z,66.41
2017-12-10T21:40:00.882Z,66.22
2017-12-10T21:42:28.443Z,66.37
2017-12-10T21:44:56.009Z,66.69
2017-12-10T21:47:23.544Z,66.50
2017-12-10T21:49:51.079Z,66.69
2017-12-10T21:52:18.742Z,66.71
2017-12-10T21:54:46.273Z,66.67
2017-12-10T21:57:13.933Z,66.89
2017-12-10T21:59:41.431Z,66.97
2017-12-10T22:02:10.177Z,67.24
2017-12-10T22:04:37.705Z,67.38
2017-12-10T22:07:05.351Z,67.51
2017-12-10T22:09:32.876Z,67.81
2017-12-10T22:12:00.433Z,68.09
2017-12-10T22:14:27.954Z,68.08
2017-12-10T22:16:55.542Z,68.35
2017-12-10T22:19:24.139Z,68.46
2017-12-10T22:21:51.664Z,68.33
2017-12-10T22:24:20.534Z,68.78
2017-12-10T22:26:48.085Z,68.89
2017-12-10T22:29:15.728Z,69.70
2017-12-10T22:31:43.461Z,69.78
2017-12-10T22:34:11.047Z,70.13
2017-12-10T22:36:40.034Z,70.88
2017-12-10T22:39:08.611Z,71.06
2017-12-10T22:41:37.988Z,72.22
2017-12-10T22:44:05.920Z,72.26
2017-12-10T22:46:35.778Z,72.30
2017-12-10T22:49:05.903Z,72.59
2017-12-10T22:51:33.570Z,72.89
2017-12-10T22:54:01.196Z,73.34
2017-12-10T22:56:28.728Z,73.26
2017-12-10T22:58:56.382Z,73.45
2017-12-10T23:01:23.921Z,74.12
2017-12-10T23:03:51.428Z,74.40
2017-12-10T23:06:19.440Z,74.57
2017-12-10T23:08:47.041Z,74.60
2017-12-10T23:11:15.180Z,74.54
2017-12-10T23:14:05.676Z,74.41
2017-12-10T23:16:33.231Z,74.35
2017-12-10T23:19:00.851Z,74.29
2017-12-10T23:21:28.468Z,74.37
2017-12-10T23:23:58.010Z,74.42
2017-12-10T23:26:26.173Z,74.32
2017-12-10T23:28:54.231Z,74.31
2017-12-10T23:31:22.851Z,74.24
2017-12-10T23:33:50.527Z,74.29
2017-12-10T23:36:18.037Z,73.86
2017-12-10T23:38:45.652Z,74.09
2017-12-10T23:41:13.524Z,74.17
2017-12-10T23:43:41.219Z,74.20
2017-12-10T23:46:08.820Z,73.94
2017-12-10T23:48:36.399Z,74.08
2017-12-10T23:51:04.633Z,74.27
2017-12-10T23:53:32.232Z,73.99
2017-12-10T23:55:59.773Z,73.59
2017-12-10T23:58:27.496Z,74.14
